Time;durP1;ratioP1;P1;durP2;ratioP2;P2;SDS_P1;SDS_P2;PMS_P1;PMS_P2;Temp;Humidity;BMP_temperature;BMP_pressure;BME280_temperature;BME280_humidity;BME280_pressure;Samples;Min_cycle;Max_cycle;Signal;HPM_P1;HPM_P2
2023/09/11 00:00:08;;;;;;;8.25;4.80;;;;;;;;;;497319;28;1119;-75
2023/09/11 00:00:24;;;;;;;8.88;4.80;;;;;;;;;;497998;28;1952;-75
2023/09/11 00:00:39;;;;;;;8.98;4.80;;;;;;;;;;498451;28;1160;-75
2023/09/11 00:00:55;;;;;;;8.57;4.77;;;;;;;;;;497906;28;1214;-75
2023/09/11 00:01:10;;;;;;;8.00;4.88;;;;;;;;;;498640;28;1321;-75
2023/09/11 00:01:26;;;;;;;8.00;5.00;;;;;;;;;;497384;28;1424;-75
2023/09/11 00:01:41;;;;;;;8.23;4.80;;;;;;;;;;498246;28;1119;-75
2023/09/11 00:01:57;;;;;;;9.50;4.87;;;;;;;;;;498073;28;1297;-75
2023/09/11 00:02:12;;;;;;;9.38;5.00;;;;;;;;;;498073;28;1199;-75
2023/09/11 00:02:28;;;;;;;8.93;5.10;;;;;;;;;;499597;28;1156;-75
2023/09/11 00:02:43;;;;;;;8.98;4.75;;;;;;;;;;499232;28;1343;-75
2023/09/11 00:02:59;;;;;;;8.63;4.50;;;;;;;;;;497628;28;1273;-75
2023/09/11 00:03:14;;;;;;;8.15;4.60;;;;;;;;;;496205;28;1156;-75
2023/09/11 00:03:31;;;;;;;8.30;4.70;;;;;;;;;;497051;28;1399;-75
2023/09/11 00:03:49;;;;;;;8.63;4.68;;;;;;;;;;496287;28;1270;-75
2023/09/11 00:04:06;;;;;;;7.55;4.57;;;;;;;;;;497278;28;1149;-75
2023/09/11 00:04:22;;;;;;;6.15;4.30;;;;;;;;;;498720;28;1184;-75
2023/09/11 00:04:37;;;;;;;7.32;4.28;;;;;;;;;;499778;28;1337;-75
2023/09/11 00:04:53;;;;;;;7.70;4.27;;;;;;;;;;497190;28;1123;-75
2023/09/11 00:05:09;;;;;;;6.22;4.25;;;;;;;;;;497673;28;1041;-75
2023/09/11 00:05:24;;;;;;;6.10;4.20;;;;;;;;;;497878;28;1149;-75
2023/09/11 00:05:40;;;;;;;5.43;4.03;;;;;;;;;;496142;28;1321;-75
2023/09/11 00:06:03;;;;;;;6.95;4.10;;;;;;;;;;499595;28;1146;-76
2023/09/11 00:06:19;;;;;;;8.60;4.50;;;;;;;;;;497154;28;1299;-75
2023/09/11 00:06:36;;;;;;;6.90;4.45;;;;;;;;;;500101;28;1132;-75
2023/09/11 00:06:51;;;;;;;6.72;4.28;;;;;;;;;;498394;28;1242;-76
2023/09/11 00:07:07;;;;;;;8.27;4.53;;;;;;;;;;494693;28;1312;-76
2023/09/11 00:07:24;;;;;;;9.20;4.90;;;;;;;;;;494167;28;1138;-75
2023/09/11 00:07:39;;;;;;;9.25;5.13;;;;;;;;;;491639;28;1169;-75
2023/09/11 00:07:55;;;;;;;8.03;4.90;;;;;;;;;;494979;28;1242;-75
2023/09/11 00:08:11;;;;;;;9.40;4.88;;;;;;;;;;494479;28;899;-75
2023/09/11 00:08:26;;;;;;;10.10;4.87;;;;;;;;;;494565;28;1039;-75
2023/09/11 00:08:42;;;;;;;8.65;4.63;;;;;;;;;;495426;28;1391;-74
2023/09/11 00:09:00;;;;;;;8.67;4.60;;;;;;;;;;495172;28;1401;-76
2023/09/11 00:09:15;;;;;;;7.72;4.53;;;;;;;;;;493815;28;1577;-75
2023/09/11 00:09:31;;;;;;;7.60;4.87;;;;;;;;;;493866;28;1183;-75
2023/09/11 00:09:46;;;;;;;7.47;4.88;;;;;;;;;;493446;28;927;-75
2023/09/11 00:10:02;;;;;;;9.13;4.83;;;;;;;;;;492228;28;1129;-75
2023/09/11 00:10:18;;;;;;;11.07;5.10;;;;;;;;;;492794;28;1315;-75
2023/09/11 00:10:35;;;;;;;9.43;5.13;;;;;;;;;;493821;28;1008;-75
2023/09/11 00:10:51;;;;;;;7.80;4.72;;;;;;;;;;495752;28;1119;-75
2023/09/11 00:11:06;;;;;;;7.67;4.70;;;;;;;;;;498956;28;1163;-75
2023/09/11 00:11:22;;;;;;;7.80;4.75;;;;;;;;;;499495;28;1160;-75
2023/09/11 00:11:38;;;;;;;9.75;4.88;;;;;;;;;;501193;28;1278;-75
2023/09/11 00:11:53;;;;;;;10.27;5.00;;;;;;;;;;500914;28;1302;-75
2023/09/11 00:12:10;;;;;;;8.95;4.85;;;;;;;;;;499234;28;1181;-75
2023/09/11 00:12:25;;;;;;;8.48;4.63;;;;;;;;;;498085;28;2275;-75
2023/09/11 00:12:41;;;;;;;8.38;4.75;;;;;;;;;;497978;28;1201;-75
2023/09/11 00:12:56;;;;;;;9.63;5.10;;;;;;;;;;499256;28;1119;-75
2023/09/11 00:13:12;;;;;;;8.82;4.90;;;;;;;;;;496674;28;1110;-75
2023/09/11 00:13:28;;;;;;;8.20;4.63;;;;;;;;;;496242;28;1339;-75
2023/09/11 00:13:44;;;;;;;9.02;4.80;;;;;;;;;;497108;28;1107;-75
2023/09/11 00:13:59;;;;;;;8.73;4.93;;;;;;;;;;495905;28;1295;-75
2023/09/11 00:14:14;;;;;;;7.30;4.68;;;;;;;;;;495572;28;988;-75
2023/09/11 00:14:30;;;;;;;7.87;4.80;;;;;;;;;;497507;28;1191;-75
2023/09/11 00:14:46;;;;;;;9.30;4.85;;;;;;;;;;499742;28;1104;-75
2023/09/11 00:15:01;;;;;;;8.50;4.83;;;;;;;;;;498291;28;1273;-75
2023/09/11 00:15:17;;;;;;;8.88;4.90;;;;;;;;;;499048;28;1120;-75
2023/09/11 00:15:34;;;;;;;8.93;4.90;;;;;;;;;;499454;28;978;-75
2023/09/11 00:15:49;;;;;;;9.18;4.78;;;;;;;;;;501170;28;1363;-75
2023/09/11 00:16:05;;;;;;;7.97;4.93;;;;;;;;;;502780;28;1145;-75
2023/09/11 00:16:20;;;;;;;7.53;4.97;;;;;;;;;;502555;28;1168;-75
2023/09/11 00:16:36;;;;;;;7.50;4.80;;;;;;;;;;501696;28;1115;-75
2023/09/11 00:16:52;;;;;;;8.33;5.00;;;;;;;;;;502363;28;1003;-75
2023/09/11 00:17:07;;;;;;;8.18;4.80;;;;;;;;;;500474;28;1164;-75
2023/09/11 00:17:23;;;;;;;6.97;4.50;;;;;;;;;;501860;28;1021;-75
2023/09/11 00:17:38;;;;;;;8.82;4.90;;;;;;;;;;500587;28;1191;-75
2023/09/11 00:17:54;;;;;;;9.43;5.10;;;;;;;;;;502391;28;947;-75
2023/09/11 00:18:09;;;;;;;8.00;4.88;;;;;;;;;;499716;28;1023;-76
2023/09/11 00:18:25;;;;;;;7.97;4.60;;;;;;;;;;498788;28;1088;-75
2023/09/11 00:18:40;;;;;;;8.23;4.75;;;;;;;;;;494846;28;1128;-75
2023/09/11 00:18:56;;;;;;;8.43;5.00;;;;;;;;;;496678;28;947;-75
2023/09/11 00:19:12;;;;;;;8.57;5.10;;;;;;;;;;497566;28;1261;-75
2023/09/11 00:19:27;;;;;;;8.13;4.97;;;;;;;;;;497812;28;1170;-75
2023/09/11 00:19:43;;;;;;;7.97;4.78;;;;;;;;;;494761;28;1207;-75
2023/09/11 00:19:59;;;;;;;7.97;4.83;;;;;;;;;;493822;28;1318;-76
2023/09/11 00:20:14;;;;;;;7.90;4.80;;;;;;;;;;493511;28;2009;-75
2023/09/11 00:20:30;;;;;;;8.97;4.97;;;;;;;;;;492284;28;1120;-75
2023/09/11 00:20:45;;;;;;;8.85;5.10;;;;;;;;;;492926;28;1354;-76
2023/09/11 00:21:02;;;;;;;8.50;4.93;;;;;;;;;;497166;28;1144;-75
2023/09/11 00:21:17;;;;;;;9.43;5.10;;;;;;;;;;495029;28;1542;-75
2023/09/11 00:21:33;;;;;;;9.13;5.10;;;;;;;;;;497394;28;1295;-75
2023/09/11 00:21:48;;;;;;;8.52;4.88;;;;;;;;;;497346;28;1020;-76
2023/09/11 00:22:04;;;;;;;9.83;5.00;;;;;;;;;;493600;28;1241;-76
2023/09/11 00:22:19;;;;;;;8.63;5.05;;;;;;;;;;495062;28;1194;-75
2023/09/11 00:22:35;;;;;;;6.93;4.88;;;;;;;;;;495985;28;1154;-76
2023/09/11 00:22:51;;;;;;;8.63;5.27;;;;;;;;;;492967;28;1035;-75
2023/09/11 00:23:09;;;;;;;10.15;5.47;;;;;;;;;;495022;28;1125;-75
2023/09/11 00:23:25;;;;;;;9.50;5.20;;;;;;;;;;494477;28;1132;-77
2023/09/11 00:23:40;;;;;;;8.93;4.83;;;;;;;;;;494049;28;1279;-75
2023/09/11 00:23:56;;;;;;;8.90;4.90;;;;;;;;;;495951;28;1236;-74
2023/09/11 00:24:11;;;;;;;10.40;5.13;;;;;;;;;;496212;28;1131;-75
2023/09/11 00:24:27;;;;;;;9.73;4.90;;;;;;;;;;496943;28;958;-75
2023/09/11 00:24:44;;;;;;;9.23;4.68;;;;;;;;;;497509;28;1137;-75
2023/09/11 00:24:59;;;;;;;8.30;4.80;;;;;;;;;;499124;28;1003;-76
2023/09/11 00:25:15;;;;;;;7.57;5.00;;;;;;;;;;496690;28;1031;-75
2023/09/11 00:25:30;;;;;;;8.18;4.90;;;;;;;;;;497302;28;986;-75
2023/09/11 00:25:46;;;;;;;8.40;5.00;;;;;;;;;;494639;28;1168;-75
2023/09/11 00:26:01;;;;;;;7.95;4.70;;;;;;;;;;496205;28;974;-75
2023/09/11 00:26:18;;;;;;;6.93;4.63;;;;;;;;;;497237;28;1163;-76
2023/09/11 00:26:33;;;;;;;6.57;4.90;;;;;;;;;;497079;28;1436;-77
2023/09/11 00:26:49;;;;;;;8.10;4.90;;;;;;;;;;495830;28;1223;-77
2023/09/11 00:27:06;;;;;;;9.73;4.93;;;;;;;;;;497347;28;1238;-77
2023/09/11 00:27:22;;;;;;;10.13;5.00;;;;;;;;;;498750;28;1282;-77
2023/09/11 00:27:37;;;;;;;9.60;5.10;;;;;;;;;;496254;28;1674;-77
2023/09/11 00:27:53;;;;;;;10.55;5.40;;;;;;;;;;498151;28;915;-77
2023/09/11 00:28:08;;;;;;;8.90;5.10;;;;;;;;;;496626;28;1259;-77
2023/09/11 00:28:24;;;;;;;7.13;4.65;;;;;;;;;;496981;28;966;-76
2023/09/11 00:28:39;;;;;;;7.00;4.70;;;;;;;;;;496819;28;1309;-77
2023/09/11 00:28:55;;;;;;;9.65;4.90;;;;;;;;;;497066;28;1096;-77
2023/09/11 00:29:10;;;;;;;10.53;4.90;;;;;;;;;;498474;28;1135;-77
2023/09/11 00:29:27;;;;;;;9.60;4.97;;;;;;;;;;498867;28;1129;-77
2023/09/11 00:29:42;;;;;;;9.07;5.00;;;;;;;;;;499451;28;959;-77
2023/09/11 00:29:58;;;;;;;8.30;5.03;;;;;;;;;;495950;28;1112;-77
2023/09/11 00:30:13;;;;;;;7.88;4.88;;;;;;;;;;494316;28;1410;-77
2023/09/11 00:30:29;;;;;;;8.73;4.90;;;;;;;;;;495635;28;1046;-77
2023/09/11 00:30:44;;;;;;;7.23;4.77;;;;;;;;;;498207;28;1288;-77
2023/09/11 00:31:00;;;;;;;7.13;4.90;;;;;;;;;;499212;28;1141;-77
2023/09/11 00:31:16;;;;;;;10.38;5.30;;;;;;;;;;496331;28;1340;-77
2023/09/11 00:31:31;;;;;;;9.53;5.00;;;;;;;;;;498391;28;987;-77
2023/09/11 00:31:48;;;;;;;8.63;4.90;;;;;;;;;;499076;28;1308;-77
2023/09/11 00:32:04;;;;;;;9.25;5.00;;;;;;;;;;501896;28;1090;-77
2023/09/11 00:32:19;;;;;;;10.85;5.40;;;;;;;;;;500155;28;1174;-77
2023/09/11 00:32:35;;;;;;;11.93;5.30;;;;;;;;;;499199;28;1162;-77
2023/09/11 00:32:50;;;;;;;10.50;5.13;;;;;;;;;;499222;28;1270;-77
2023/09/11 00:33:06;;;;;;;9.00;5.22;;;;;;;;;;499873;28;1094;-77
2023/09/11 00:33:21;;;;;;;9.17;5.10;;;;;;;;;;498663;28;1157;-77
2023/09/11 00:33:37;;;;;;;9.95;4.95;;;;;;;;;;497872;28;1190;-76
2023/09/11 00:33:53;;;;;;;9.07;5.03;;;;;;;;;;498731;28;1065;-77
2023/09/11 00:34:08;;;;;;;8.37;5.13;;;;;;;;;;499014;28;1091;-76
2023/09/11 00:34:24;;;;;;;8.52;5.13;;;;;;;;;;499173;28;1072;-77
2023/09/11 00:34:39;;;;;;;9.93;5.20;;;;;;;;;;498918;28;1170;-77
2023/09/11 00:34:55;;;;;;;9.23;4.90;;;;;;;;;;497210;28;1427;-76
2023/09/11 00:35:10;;;;;;;7.93;4.75;;;;;;;;;;497517;28;887;-78
2023/09/11 00:35:25;;;;;;;9.17;4.93;;;;;;;;;;498225;28;1133;-77
2023/09/11 00:35:45;;;;;;;8.85;4.82;;;;;;;;;;497017;28;1124;-77
2023/09/11 00:36:01;;;;;;;7.20;4.72;;;;;;;;;;497349;28;1026;-77
2023/09/11 00:36:17;;;;;;;8.73;5.10;;;;;;;;;;499769;28;1176;-78
2023/09/11 00:36:32;;;;;;;8.70;5.13;;;;;;;;;;497037;28;1205;-77
2023/09/11 00:36:48;;;;;;;7.57;4.70;;;;;;;;;;496649;28;1214;-76
2023/09/11 00:37:03;;;;;;;8.80;4.80;;;;;;;;;;496368;28;1294;-76
2023/09/11 00:37:19;;;;;;;10.40;5.13;;;;;;;;;;496319;28;1226;-77
2023/09/11 00:37:35;;;;;;;10.57;5.20;;;;;;;;;;495905;28;960;-77
2023/09/11 00:37:51;;;;;;;8.98;4.95;;;;;;;;;;497581;28;1075;-77
2023/09/11 00:38:07;;;;;;;7.60;4.75;;;;;;;;;;494324;28;1096;-77
2023/09/11 00:38:23;;;;;;;7.40;5.00;;;;;;;;;;494132;28;1189;-76
2023/09/11 00:38:39;;;;;;;8.07;5.20;;;;;;;;;;493414;28;1299;-77
2023/09/11 00:38:56;;;;;;;8.57;4.90;;;;;;;;;;495843;28;1283;-76
2023/09/11 00:39:11;;;;;;;8.13;4.82;;;;;;;;;;494935;28;1398;-78
2023/09/11 00:39:27;;;;;;;7.50;4.70;;;;;;;;;;494868;28;978;-78
2023/09/11 00:39:42;;;;;;;8.30;4.73;;;;;;;;;;496263;28;1280;-78
2023/09/11 00:39:58;;;;;;;9.93;4.95;;;;;;;;;;495664;28;1179;-77
2023/09/11 00:40:13;;;;;;;8.95;4.90;;;;;;;;;;496103;28;1980;-78
2023/09/11 00:40:29;;;;;;;9.00;5.00;;;;;;;;;;496771;28;1268;-77
2023/09/11 00:40:44;;;;;;;9.47;4.87;;;;;;;;;;496568;28;1226;-77
2023/09/11 00:41:00;;;;;;;9.85;4.88;;;;;;;;;;498227;28;1206;-78
2023/09/11 00:41:16;;;;;;;10.17;5.20;;;;;;;;;;498332;28;1327;-77
2023/09/11 00:41:31;;;;;;;10.88;5.35;;;;;;;;;;495944;28;1226;-78
2023/09/11 00:41:47;;;;;;;12.77;5.40;;;;;;;;;;494978;28;1259;-78
2023/09/11 00:42:03;;;;;;;11.05;5.22;;;;;;;;;;494873;28;1426;-78
2023/09/11 00:42:18;;;;;;;10.23;5.03;;;;;;;;;;494641;28;1247;-77
2023/09/11 00:42:34;;;;;;;9.83;5.17;;;;;;;;;;496240;28;1071;-77
2023/09/11 00:42:49;;;;;;;10.02;5.20;;;;;;;;;;495975;28;1271;-77
2023/09/11 00:43:05;;;;;;;11.20;5.10;;;;;;;;;;493791;28;1119;-78
2023/09/11 00:43:20;;;;;;;9.82;5.00;;;;;;;;;;493344;28;1138;-77
2023/09/11 00:43:36;;;;;;;8.47;5.00;;;;;;;;;;493522;28;1316;-78
2023/09/11 00:43:51;;;;;;;8.30;4.90;;;;;;;;;;494394;28;1225;-77
2023/09/11 00:44:07;;;;;;;8.83;4.90;;;;;;;;;;495855;28;1307;-77
2023/09/11 00:44:22;;;;;;;9.20;5.10;;;;;;;;;;496961;28;1126;-77
2023/09/11 00:44:38;;;;;;;8.67;5.30;;;;;;;;;;498571;28;1093;-77
2023/09/11 00:44:54;;;;;;;7.80;5.30;;;;;;;;;;496009;28;1268;-78
2023/09/11 00:45:11;;;;;;;7.50;5.03;;;;;;;;;;496961;28;1207;-78
2023/09/11 00:45:26;;;;;;;8.18;5.13;;;;;;;;;;498705;28;1197;-77
2023/09/11 00:45:42;;;;;;;8.80;5.10;;;;;;;;;;498836;28;1266;-78
2023/09/11 00:45:58;;;;;;;8.63;5.00;;;;;;;;;;497764;28;1200;-77
2023/09/11 00:46:13;;;;;;;9.98;5.10;;;;;;;;;;498001;28;1200;-77
2023/09/11 00:46:30;;;;;;;10.27;5.10;;;;;;;;;;498250;28;1199;-78
2023/09/11 00:46:46;;;;;;;8.45;4.80;;;;;;;;;;497247;28;1386;-78
2023/09/11 00:47:02;;;;;;;7.97;4.90;;;;;;;;;;497830;28;1251;-77
2023/09/11 00:47:17;;;;;;;8.67;5.00;;;;;;;;;;494165;28;1359;-78
2023/09/11 00:47:33;;;;;;;8.43;4.93;;;;;;;;;;493912;28;1221;-78
2023/09/11 00:47:50;;;;;;;9.20;5.00;;;;;;;;;;494302;28;961;-77
2023/09/11 00:48:06;;;;;;;10.40;5.07;;;;;;;;;;492033;28;1121;-77
2023/09/11 00:48:22;;;;;;;8.85;4.93;;;;;;;;;;492751;28;1225;-78
2023/09/11 00:48:38;;;;;;;6.88;4.75;;;;;;;;;;492445;28;1426;-78
2023/09/11 00:48:58;;;;;;;9.20;5.00;;;;;;;;;;496499;28;1263;-78
2023/09/11 00:49:15;;;;;;;11.45;5.07;;;;;;;;;;496374;28;1212;-78
2023/09/11 00:49:33;;;;;;;9.07;4.93;;;;;;;;;;500343;28;1220;-78
2023/09/11 00:49:49;;;;;;;8.02;4.93;;;;;;;;;;500048;28;980;-78
2023/09/11 00:50:05;;;;;;;7.87;5.10;;;;;;;;;;498833;28;1279;-77
2023/09/11 00:50:24;;;;;;;8.73;5.25;;;;;;;;;;497635;28;1232;-78
2023/09/11 00:50:40;;;;;;;7.78;5.10;;;;;;;;;;497505;28;1279;-77
2023/09/11 00:50:56;;;;;;;8.00;5.00;;;;;;;;;;496757;28;1246;-77
2023/09/11 00:51:11;;;;;;;9.23;5.30;;;;;;;;;;495211;28;1187;-78
2023/09/11 00:51:27;;;;;;;9.93;5.30;;;;;;;;;;498264;28;1210;-78
2023/09/11 00:51:50;;;;;;;9.30;5.25;;;;;;;;;;494499;28;1165;-78
2023/09/11 00:52:06;;;;;;;8.80;5.20;;;;;;;;;;497198;28;1304;-77
2023/09/11 00:52:22;;;;;;;9.30;5.18;;;;;;;;;;496859;28;1394;-77
2023/09/11 00:52:39;;;;;;;10.55;5.53;;;;;;;;;;499429;28;1201;-78
2023/09/11 00:52:54;;;;;;;10.23;5.47;;;;;;;;;;500230;28;1355;-78
2023/09/11 00:53:14;;;;;;;9.73;5.13;;;;;;;;;;500121;28;1584;-78
2023/09/11 00:53:30;;;;;;;9.85;5.13;;;;;;;;;;500795;28;1144;-78
2023/09/11 00:53:46;;;;;;;11.07;4.97;;;;;;;;;;502661;28;1516;-78
2023/09/11 00:54:04;;;;;;;11.23;5.17;;;;;;;;;;501229;28;1296;-78
2023/09/11 00:54:21;;;;;;;10.00;5.35;;;;;;;;;;499544;28;1338;-78
2023/09/11 00:54:37;;;;;;;8.77;5.30;;;;;;;;;;497829;28;1233;-78
2023/09/11 00:54:56;;;;;;;10.60;5.40;;;;;;;;;;499727;28;1157;-77
2023/09/11 00:55:12;;;;;;;11.30;5.20;;;;;;;;;;496511;28;1423;-77
2023/09/11 00:55:28;;;;;;;9.23;5.10;;;;;;;;;;499559;28;1106;-77
2023/09/11 00:55:47;;;;;;;9.13;5.27;;;;;;;;;;499510;28;1050;-77
2023/09/11 00:56:03;;;;;;;8.88;5.22;;;;;;;;;;501492;28;1021;-78
2023/09/11 00:56:18;;;;;;;9.77;5.20;;;;;;;;;;499535;28;1159;-78
2023/09/11 00:56:34;;;;;;;11.00;5.30;;;;;;;;;;497803;28;1102;-78
2023/09/11 00:56:50;;;;;;;10.05;5.40;;;;;;;;;;498934;28;1304;-77
2023/09/11 00:57:08;;;;;;;8.80;5.30;;;;;;;;;;496511;28;1491;-78
2023/09/11 00:57:25;;;;;;;8.75;5.20;;;;;;;;;;496630;28;1073;-78
2023/09/11 00:57:42;;;;;;;9.50;5.20;;;;;;;;;;496027;28;1136;-78
2023/09/11 00:58:01;;;;;;;11.27;5.45;;;;;;;;;;495273;28;1327;-78
2023/09/11 00:58:17;;;;;;;11.38;5.30;;;;;;;;;;498632;28;1411;-77
2023/09/11 00:58:32;;;;;;;8.48;4.90;;;;;;;;;;497815;28;1035;-78
2023/09/11 00:58:51;;;;;;;8.52;5.40;;;;;;;;;;499713;28;1283;-78
2023/09/11 00:59:07;;;;;;;10.38;5.63;;;;;;;;;;499960;28;1359;-78
2023/09/11 00:59:22;;;;;;;9.80;5.30;;;;;;;;;;500941;28;1071;-77
2023/09/11 00:59:38;;;;;;;8.90;5.15;;;;;;;;;;501169;28;1220;-78
2023/09/11 00:59:53;;;;;;;8.33;5.00;;;;;;;;;;499950;28;1194;-78
2023/09/11 01:00:20;;;;;;;;;;;;;;;;;;;;;
2023/09/11 01:00:35;;;;;;;9.43;5.30;;;;;;;;;;483907;28;1173;-77
2023/09/11 01:00:52;;;;;;;10.10;5.20;;;;;;;;;;478552;28;1358;-77
2023/09/11 01:01:10;;;;;;;10.23;5.07;;;;;;;;;;476739;28;1307;-78
2023/09/11 01:01:26;;;;;;;9.05;4.93;;;;;;;;;;479148;28;1330;-78
2023/09/11 01:01:43;;;;;;;10.77;5.25;;;;;;;;;;480070;28;1349;-78
2023/09/11 01:02:00;;;;;;;12.13;5.40;;;;;;;;;;481789;28;1142;-78
2023/09/11 01:02:15;;;;;;;9.48;5.07;;;;;;;;;;479786;28;1159;-77
2023/09/11 01:02:31;;;;;;;9.73;5.30;;;;;;;;;;478919;28;990;-77
2023/09/11 01:02:47;;;;;;;11.15;5.40;;;;;;;;;;479787;28;1291;-77
2023/09/11 01:03:03;;;;;;;8.65;5.30;;;;;;;;;;480531;28;1279;-77
2023/09/11 01:03:19;;;;;;;8.38;5.40;;;;;;;;;;480360;28;1119;-78
2023/09/11 01:03:36;;;;;;;8.88;5.13;;;;;;;;;;480766;28;1396;-77
2023/09/11 01:03:52;;;;;;;8.57;4.90;;;;;;;;;;480843;28;1404;-78
2023/09/11 01:04:08;;;;;;;7.60;5.00;;;;;;;;;;481813;28;1258;-78
2023/09/11 01:04:24;;;;;;;9.10;5.03;;;;;;;;;;481474;28;1093;-77
2023/09/11 01:04:41;;;;;;;8.60;4.90;;;;;;;;;;480871;28;1319;-77
2023/09/11 01:04:59;;;;;;;7.97;5.20;;;;;;;;;;481624;28;1296;-77
2023/09/11 01:05:14;;;;;;;7.53;5.10;;;;;;;;;;481094;28;1040;-77
2023/09/11 01:05:30;;;;;;;10.20;5.23;;;;;;;;;;482604;28;1385;-77
2023/09/11 01:05:46;;;;;;;9.68;5.32;;;;;;;;;;482876;28;1498;-76
2023/09/11 01:06:02;;;;;;;7.97;5.00;;;;;;;;;;481375;28;1256;-77
2023/09/11 01:06:17;;;;;;;9.35;5.20;;;;;;;;;;483869;28;1275;-78
2023/09/11 01:06:33;;;;;;;9.60;5.43;;;;;;;;;;481621;28;1095;-78
2023/09/11 01:06:48;;;;;;;9.13;5.38;;;;;;;;;;482323;28;1014;-78
2023/09/11 01:07:04;;;;;;;8.70;5.40;;;;;;;;;;482010;28;1251;-77
2023/09/11 01:07:19;;;;;;;9.40;5.55;;;;;;;;;;482766;28;984;-78
2023/09/11 01:07:35;;;;;;;9.37;5.50;;;;;;;;;;482245;28;1291;-77
2023/09/11 01:07:51;;;;;;;9.43;5.40;;;;;;;;;;482174;28;1142;-77
2023/09/11 01:08:06;;;;;;;8.30;5.13;;;;;;;;;;483302;28;894;-78
2023/09/11 01:08:22;;;;;;;8.20;4.72;;;;;;;;;;483096;28;1194;-77
2023/09/11 01:08:37;;;;;;;9.18;4.90;;;;;;;;;;483932;28;1189;-77
2023/09/11 01:08:55;;;;;;;8.67;5.20;;;;;;;;;;482477;28;1251;-77
2023/09/11 01:09:10;;;;;;;8.73;5.25;;;;;;;;;;479051;28;1070;-77
2023/09/11 01:09:26;;;;;;;8.23;5.23;;;;;;;;;;480712;28;1262;-77
2023/09/11 01:09:41;;;;;;;8.37;5.40;;;;;;;;;;480986;28;1058;-77
2023/09/11 01:09:57;;;;;;;8.70;5.13;;;;;;;;;;479286;28;1208;-77
2023/09/11 01:10:13;;;;;;;7.00;4.88;;;;;;;;;;479198;28;1067;-77
2023/09/11 01:10:28;;;;;;;8.40;4.82;;;;;;;;;;480370;28;1165;-77
2023/09/11 01:10:44;;;;;;;10.40;5.10;;;;;;;;;;479434;28;1139;-78
2023/09/11 01:10:59;;;;;;;9.52;5.10;;;;;;;;;;479543;28;943;-78
2023/09/11 01:11:15;;;;;;;8.73;5.00;;;;;;;;;;479494;28;1178;-77
2023/09/11 01:11:30;;;;;;;9.53;5.07;;;;;;;;;;481380;28;1148;-78
2023/09/11 01:11:45;;;;;;;9.25;5.15;;;;;;;;;;479580;28;1194;-78
2023/09/11 01:12:01;;;;;;;7.53;5.23;;;;;;;;;;478278;28;1347;-78
2023/09/11 01:12:16;;;;;;;7.95;5.45;;;;;;;;;;479774;28;1270;-78
2023/09/11 01:12:35;;;;;;;9.50;5.57;;;;;;;;;;480708;28;1004;-78
2023/09/11 01:12:50;;;;;;;9.13;5.20;;;;;;;;;;481306;28;1154;-77
2023/09/11 01:13:06;;;;;;;7.83;4.90;;;;;;;;;;481956;28;1190;-77
2023/09/11 01:13:21;;;;;;;7.70;4.97;;;;;;;;;;483639;28;907;-78
2023/09/11 01:13:37;;;;;;;7.33;5.23;;;;;;;;;;483229;28;949;-78
2023/09/11 01:13:53;;;;;;;7.80;5.13;;;;;;;;;;481083;28;1312;-77
2023/09/11 01:14:09;;;;;;;8.77;5.28;;;;;;;;;;482958;28;1266;-78
2023/09/11 01:14:25;;;;;;;9.20;5.30;;;;;;;;;;480709;28;1348;-77
2023/09/11 01:14:41;;;;;;;9.50;5.28;;;;;;;;;;479719;28;1099;-77
2023/09/11 01:14:56;;;;;;;9.77;5.20;;;;;;;;;;483647;28;1123;-78
2023/09/11 01:15:12;;;;;;;10.13;5.15;;;;;;;;;;483973;28;1214;-78
2023/09/11 01:15:34;;;;;;;9.63;5.07;;;;;;;;;;484655;28;923;-77
2023/09/11 01:16:17;;;;;;;9.40;4.97;;;;;;;;;;482969;28;1277;-77
2023/09/11 01:16:52;;;;;;;10.80;5.32;;;;;;;;;;482976;28;1198;-77
2023/09/11 01:17:27;;;;;;;8.02;5.13;;;;;;;;;;484172;28;1297;-77
2023/09/11 01:18:04;;;;;;;7.85;4.80;;;;;;;;;;485125;28;1298;-77
2023/09/11 01:18:34;;;;;;;6.50;4.85;;;;;;;;;;482806;28;1158;-77
2023/09/11 01:19:02;;;;;;;6.55;4.45;;;;;;;;;;482517;28;979;-78
2023/09/11 01:19:32;;;;;;;7.72;4.70;;;;;;;;;;479531;28;994;-77
2023/09/11 01:20:13;;;;;;;7.65;4.70;;;;;;;;;;484335;28;1275;-77
2023/09/11 01:21:10;;;;;;;9.40;5.30;;;;;;;;;;483944;28;1953;-79
2023/09/11 01:21:45;;;;;;;7.32;4.90;;;;;;;;;;483198;28;1216;-78
2023/09/11 01:22:19;;;;;;;9.38;5.30;;;;;;;;;;486306;28;1406;-77
2023/09/11 01:22:53;;;;;;;9.70;5.22;;;;;;;;;;486281;28;1286;-77
2023/09/11 01:23:41;;;;;;;8.98;4.97;;;;;;;;;;481807;28;1187;-77
2023/09/11 01:24:12;;;;;;;11.55;5.30;;;;;;;;;;484479;28;1181;-77
2023/09/11 01:25:04;;;;;;;9.65;4.90;;;;;;;;;;486066;28;959;-77
2023/09/11 01:26:03;;;;;;;9.30;5.07;;;;;;;;;;483448;28;1089;-77
2023/09/11 01:26:34;;;;;;;8.18;5.22;;;;;;;;;;482230;28;1511;-78
2023/09/11 01:27:24;;;;;;;8.82;4.90;;;;;;;;;;482734;28;1473;-77
2023/09/11 01:27:57;;;;;;;8.45;5.18;;;;;;;;;;480620;28;1089;-77
2023/09/11 01:28:32;;;;;;;9.63;5.40;;;;;;;;;;479620;28;978;-77
2023/09/11 01:29:07;;;;;;;9.40;4.97;;;;;;;;;;482443;28;1294;-77
2023/09/11 01:29:26;;;;;;;9.15;4.90;;;;;;;;;;483302;28;911;-77
2023/09/11 01:29:44;;;;;;;8.63;5.15;;;;;;;;;;487807;28;1033;-77
2023/09/11 01:30:00;;;;;;;10.00;5.32;;;;;;;;;;484131;28;1135;-78
2023/09/11 01:30:16;;;;;;;10.27;5.50;;;;;;;;;;480866;28;1219;-77
2023/09/11 01:30:33;;;;;;;8.35;5.35;;;;;;;;;;483659;28;1192;-78
2023/09/11 01:30:49;;;;;;;8.52;5.28;;;;;;;;;;484668;28;1227;-78
2023/09/11 01:31:06;;;;;;;9.63;5.35;;;;;;;;;;484920;28;1135;-77
2023/09/11 01:31:24;;;;;;;11.23;5.35;;;;;;;;;;483401;28;1148;-78
2023/09/11 01:31:43;;;;;;;9.82;5.40;;;;;;;;;;483532;28;1098;-78
2023/09/11 01:32:02;;;;;;;11.05;5.80;;;;;;;;;;484917;28;1046;-78
2023/09/11 01:32:20;;;;;;;10.60;5.53;;;;;;;;;;480652;28;1164;-78
2023/09/11 01:32:37;;;;;;;9.50;5.10;;;;;;;;;;481402;28;1234;-77
2023/09/11 01:32:54;;;;;;;10.40;5.22;;;;;;;;;;481003;28;1101;-78
2023/09/11 01:33:09;;;;;;;8.80;5.20;;;;;;;;;;480977;28;1064;-78
2023/09/11 01:33:25;;;;;;;7.95;5.05;;;;;;;;;;481720;28;1177;-79
2023/09/11 01:33:41;;;;;;;9.30;5.38;;;;;;;;;;482485;28;1792;-78
2023/09/11 01:34:01;;;;;;;9.88;5.50;;;;;;;;;;481909;28;1047;-78
2023/09/11 01:34:17;;;;;;;8.98;5.32;;;;;;;;;;480867;28;1193;-77
2023/09/11 01:34:32;;;;;;;9.80;5.40;;;;;;;;;;483739;28;1166;-77
2023/09/11 01:34:48;;;;;;;8.77;5.22;;;;;;;;;;485553;28;1264;-78
2023/09/11 01:35:04;;;;;;;8.73;5.20;;;;;;;;;;484432;28;1288;-78
2023/09/11 01:35:20;;;;;;;9.65;5.18;;;;;;;;;;482987;28;1243;-78
2023/09/11 01:35:36;;;;;;;9.82;5.03;;;;;;;;;;482135;28;1294;-78
2023/09/11 01:35:51;;;;;;;11.60;5.20;;;;;;;;;;480004;28;1101;-77
2023/09/11 01:36:07;;;;;;;11.77;5.32;;;;;;;;;;479285;28;1171;-77
2023/09/11 01:36:22;;;;;;;9.43;5.68;;;;;;;;;;480904;28;957;-79
2023/09/11 01:36:38;;;;;;;10.07;5.43;;;;;;;;;;480766;28;1092;-78
2023/09/11 01:36:54;;;;;;;10.98;5.25;;;;;;;;;;481190;28;1046;-78
2023/09/11 01:37:09;;;;;;;9.50;5.40;;;;;;;;;;483632;28;1191;-77
2023/09/11 01:37:25;;;;;;;8.65;5.32;;;;;;;;;;483465;28;1126;-78
2023/09/11 01:37:41;;;;;;;7.53;5.18;;;;;;;;;;486632;28;978;-78
2023/09/11 01:37:58;;;;;;;8.02;5.20;;;;;;;;;;487763;28;1006;-78
2023/09/11 01:38:14;;;;;;;9.35;5.40;;;;;;;;;;484628;28;946;-78
2023/09/11 01:38:29;;;;;;;9.27;5.20;;;;;;;;;;485690;28;1196;-78
2023/09/11 01:38:45;;;;;;;8.20;5.07;;;;;;;;;;485146;28;1343;-78
2023/09/11 01:39:03;;;;;;;7.65;5.07;;;;;;;;;;483850;28;1125;-78
2023/09/11 01:39:19;;;;;;;8.95;5.53;;;;;;;;;;482275;28;1558;-78
2023/09/11 01:39:35;;;;;;;9.27;5.40;;;;;;;;;;484304;28;1304;-78
2023/09/11 01:39:51;;;;;;;8.98;5.25;;;;;;;;;;484121;28;1327;-78
2023/09/11 01:40:07;;;;;;;9.50;5.23;;;;;;;;;;480954;28;1329;-77
2023/09/11 01:40:25;;;;;;;11.13;5.00;;;;;;;;;;481348;28;2400;-78
2023/09/11 01:40:43;;;;;;;10.07;4.88;;;;;;;;;;479733;28;1259;-78
2023/09/11 01:41:01;;;;;;;10.13;5.28;;;;;;;;;;479438;28;1357;-77
2023/09/11 01:41:17;;;;;;;8.93;5.25;;;;;;;;;;477184;28;1326;-78
2023/09/11 01:41:39;;;;;;;8.70;5.32;;;;;;;;;;481295;28;1337;-78
2023/09/11 01:42:05;;;;;;;9.77;5.38;;;;;;;;;;479259;28;1275;-78
2023/09/11 01:42:30;;;;;;;8.20;5.50;;;;;;;;;;476740;28;1279;-78
2023/09/11 01:42:53;;;;;;;10.07;5.30;;;;;;;;;;477352;28;1342;-78
2023/09/11 01:43:11;;;;;;;9.18;5.43;;;;;;;;;;477305;28;1101;-78
2023/09/11 01:43:31;;;;;;;8.82;5.30;;;;;;;;;;479344;28;1227;-78
2023/09/11 01:43:48;;;;;;;9.55;5.47;;;;;;;;;;479500;28;1074;-78
2023/09/11 01:44:32;;;;;;;7.78;5.35;;;;;;;;;;481388;28;1188;-78
2023/09/11 01:44:50;;;;;;;8.20;5.47;;;;;;;;;;477499;28;1258;-78
2023/09/11 01:45:06;;;;;;;7.18;5.15;;;;;;;;;;484016;28;1113;-78
2023/09/11 01:45:22;;;;;;;7.35;5.07;;;;;;;;;;483835;28;994;-78
2023/09/11 01:45:40;;;;;;;11.20;5.57;;;;;;;;;;486657;28;1313;-78
2023/09/11 01:45:55;;;;;;;10.95;5.60;;;;;;;;;;484186;28;1209;-78
2023/09/11 01:46:12;;;;;;;8.13;5.18;;;;;;;;;;481434;28;1512;-77
2023/09/11 01:46:28;;;;;;;7.25;5.07;;;;;;;;;;482931;28;1558;-78
2023/09/11 01:46:46;;;;;;;9.38;5.30;;;;;;;;;;484691;28;1104;-78
2023/09/11 01:47:02;;;;;;;9.85;5.60;;;;;;;;;;486157;28;1236;-77
2023/09/11 01:47:21;;;;;;;8.32;5.18;;;;;;;;;;483519;28;1018;-78
2023/09/11 01:47:37;;;;;;;8.10;5.10;;;;;;;;;;483151;28;987;-78
2023/09/11 01:47:53;;;;;;;8.57;5.47;;;;;;;;;;484710;28;1149;-78
2023/09/11 01:48:09;;;;;;;8.60;5.43;;;;;;;;;;484793;28;1143;-78
2023/09/11 01:48:25;;;;;;;10.27;5.38;;;;;;;;;;484221;28;1055;-78
2023/09/11 01:48:43;;;;;;;9.73;5.43;;;;;;;;;;484172;28;1105;-78